x

West Sea Otter (46204) Wave Buoy

1:00 - Sun 26th Apr 2015 All times are PDT. -7 hours from GMT.

  • Sig Wave height 13.4ft
  • Peak Period 9s
  • Wind
    34mph, 40mph gusts
  • Sea Temp 50°f
  • Air Temp 48°f
  • Sea Pressure 1012.7mb
  • West Sea Otter
  • West Sea Otter

More Historic Weather Station data

Upgrade to MSW Pro to gain access to the past 30 days of data for over 8000 Wavebouys and Weather Stations around the globe.

Join Pro

Comparision Forecast

View Surf forecast
   
dim. 04/26 1:00 13.5ft 9s 34 40 mph 1012.7mb 50f 48f
12:00 13.5ft 10s 31 38 mph 1012.1mb 50f 48f
11:00 14ft 10s 29 38 mph 1012.1mb 50f 48f
9:00 12.5ft 8s 27 34 mph 1011.5mb 50f 47f
8:00 10.5ft 8s 29 36 mph 1011.3mb 50f 47f
7:00 8.5ft 8s 31 38 mph 1010.7mb 50f 48f
6:00 8ft 7s 29 34 mph 1010.8mb 50f 50f
5:00 7.5ft 6s 27 34 mph 1011.1mb 50f 50f
4:00 6.5ft 6s 25 31 mph 1011.8mb 50f 50f
3:00 6ft 6s 22 29 mph 1012.4mb 50f 50f
2:00 6ft 5s 25 29 mph 1012.7mb 50f 50f
1:00 5ft 5s 22 27 mph 1012.6mb 50f 50f
12:00 5ft 4s 22 27 mph 1012.8mb 50f 50f
sam. 04/25 11:00 4ft 9s 22 31 mph 1013.2mb 50f 50f
10:00 4ft 15s 20 25 mph 1013.6mb 51f 50f
9:00 3.5ft 9s 18 22 mph 1013.9mb 51f 50f
8:00 3.5ft 8s 13 16 mph 1014.3mb 51f 50f
7:00 3.5ft 9s 11 13 mph 1014.4mb 51f 50f
6:00 4ft 9s 13
mph
1015mb 51f 50f
5:00 4.5ft 9s 9 11 mph 1014.8mb 51f 50f
4:00 4.5ft 9s 9 11 mph 1015.1mb 51f 50f
3:00 4.5ft 7s 9 11 mph 1015.1mb 51f 50f
2:00 4.5ft 10s 11 13 mph 1015.4mb 51f 50f
1:00 4.5ft 10s 11 13 mph 1015.4mb 51f 49f
12:00 4.5ft 9s 9 11 mph 1014.8mb 50f 49f
11:00 4.5ft 9s 9 13 mph 1014.6mb 50f 49f
10:00 4.5ft 10s 11
mph
1014.2mb 50f 49f
9:00 4.5ft 10s 4
mph
1014mb 50f 49f
8:00 4ft 10s 4 7 mph 1013.7mb 50f 49f
7:00 5ft 10s 9 13 mph 1013.2mb 50f 48f
6:00 5ft 10s 9 11 mph 1012.7mb 50f 48f
5:00 5ft 10s 9 11 mph 1012.6mb 49f 48f
4:00 5.5ft 10s 9 11 mph 1012.5mb 49f 48f
3:00 5ft 10s 11 13 mph 1012.2mb 49f 48f
2:00 6ft 10s 11 16 mph 1011.9mb 50f 48f
1:00 6ft 10s 13 18 mph 1011.8mb 50f 48f
12:00 5ft 10s 13 16 mph 1011.7mb 50f 47f
ven. 04/24 11:00 5.5ft 11s 13 16 mph 1011.5mb 50f 46f
10:00 5.5ft 11s 11 13 mph 1011.5mb 50f 47f
8:00 6ft 10s 9 13 mph 1010.7mb 50f 47f
7:00 6ft 11s 9 11 mph 1010.4mb 50f 47f
6:00 7ft 12s 11 13 mph 1010mb 51f 47f
4:00 8ft 11s 9 11 mph 1009.3mb 51f 48f
3:00 7.5ft 12s 9 11 mph 1009.3mb 51f 47f
2:00 8ft 11s 9 11 mph 1009.1mb 51f 47f
1:00 9ft 12s 7 9 mph 1008.9mb 51f 48f
12:00 9ft 12s 7 11 mph 1008.6mb 51f 47f
11:00 9ft 11s 7 9 mph 1008.1mb 51f 47f
10:00 9ft 12s 4 9 mph 1007.8mb 50f 47f
9:00 9ft 12s 4 9 mph 1007.4mb 50f 47f
8:00 9ft 14s 7 9 mph 1007.3mb 50f 46f
7:00 9.5ft 14s 4 7 mph 1007.1mb 49f 47f
6:00 10ft 12s 4 7 mph 1006.7mb 49f 46f
5:00 9ft 14s 2 4 mph 1006.4mb 49f 46f
4:00 10ft 12s 4 9 mph 1006.1mb 49f 46f
3:00 10ft 12s 4 9 mph 1005.9mb 49f 46f
2:00 10ft 12s 2 4 mph 1006.1mb 49f 46f
1:00 10.5ft 11s 2 4 mph 1006.4mb 50f 46f
12:00 10ft 13s 4 9 mph 1006.3mb 50f 46f
jeu. 04/23 11:00 11ft 16s 2 4 mph 1006.1mb 50f 46f
10:00 12ft 12s 4 7 mph 1006mb 50f 45f
9:00 12ft 14s 9 13 mph 1005.7mb 50f 45f
8:00 12ft 11s 2 4 mph 1005.3mb 50f 46f
7:00 12.5ft 15s 4 9 mph 1005mb 51f 46f
6:00 11ft 11s 4 9 mph 1004.9mb 51f 46f
5:00 11ft 11s  -  2 mph 1005mb 51f 47f
4:00 11.5ft 10s 4 9 mph 1005mb 50f 46f
3:00 10.5ft 10s 7 11 mph 1005.2mb 50f 46f
1:00 9.5ft 10s 7 11 mph 1005.5mb 50f 47f
12:00 9ft 10s 7 9 mph 1005.6mb 50f 47f
11:00 8ft 9s 7 11 mph 1005.8mb 50f 47f
10:00 8.5ft 10s 13 16 mph 1005.7mb 49f 46f
9:00 8ft 8s 11 16 mph 1006mb 49f 47f
8:00 8ft 10s 4 9 mph 1006.1mb 49f 47f
7:00 8ft 9s 4 9 mph 1006.1mb 49f 46f
6:00 9ft 9s 18 22 mph 1006mb 49f 45f
5:00 9ft 8s 13
mph
1006.3mb 49f 47f
4:00  -   -  18
mph
1006.4mb - 46f
3:00 11.5ft 8s 9 16 mph 1006.3mb 50f 44f
1:00 10ft 7s 34 40 mph 1007.3mb 50f 45f
mer. 04/22 11:00 8ft 7s 34 43 mph 1008.2mb 50f 46f
10:00 7.5ft 6s 31 43 mph 1009.7mb 50f 46f